sensor_id;sensor_type;location;lat;lon;timestamp;P1;durP1;ratioP1;P2;durP2;ratioP2
66966;SDS011;53900;51.468;-2.586;2023-04-24T07:20:56;11.30;;;5.75;;
66966;SDS011;53900;51.468;-2.586;2023-04-24T07:23:22;10.82;;;5.65;;
66966;SDS011;53900;51.468;-2.586;2023-04-24T07:25:47;14.40;;;5.97;;
66966;SDS011;53900;51.468;-2.586;2023-04-24T07:28:12;9.57;;;5.95;;
66966;SDS011;53900;51.468;-2.586;2023-04-24T07:30:38;10.05;;;5.85;;
66966;SDS011;53900;51.468;-2.586;2023-04-24T07:33:03;11.15;;;5.07;;
66966;SDS011;53900;51.468;-2.586;2023-04-24T07:35:28;9.80;;;5.85;;
66966;SDS011;53900;51.468;-2.586;2023-04-24T07:37:53;8.55;;;5.25;;
66966;SDS011;53900;51.468;-2.586;2023-04-24T07:40:19;11.23;;;5.38;;
66966;SDS011;53900;51.468;-2.586;2023-04-24T07:42:44;11.07;;;5.90;;
66966;SDS011;53900;51.468;-2.586;2023-04-24T07:45:09;12.52;;;5.43;;
66966;SDS011;53900;51.468;-2.586;2023-04-24T07:47:34;13.63;;;6.38;;
66966;SDS011;53900;51.468;-2.586;2023-04-24T07:50:01;7.68;;;5.38;;
66966;SDS011;53900;51.468;-2.586;2023-04-24T07:52:26;9.85;;;5.15;;
66966;SDS011;53900;51.468;-2.586;2023-04-24T07:54:51;9.45;;;4.90;;
66966;SDS011;53900;51.468;-2.586;2023-04-24T07:57:23;9.00;;;4.53;;
66966;SDS011;53900;51.468;-2.586;2023-04-24T07:59:48;6.55;;;4.47;;
66966;SDS011;53900;51.468;-2.586;2023-04-24T08:02:13;5.63;;;4.00;;
66966;SDS011;53900;51.468;-2.586;2023-04-24T08:04:39;7.68;;;4.18;;
66966;SDS011;53900;51.468;-2.586;2023-04-24T08:07:04;6.95;;;3.70;;
66966;SDS011;53900;51.468;-2.586;2023-04-24T08:09:30;5.18;;;3.05;;
66966;SDS011;53900;51.468;-2.586;2023-04-24T08:11:55;9.38;;;3.45;;
66966;SDS011;53900;51.468;-2.586;2023-04-24T08:14:21;4.75;;;3.50;;
66966;SDS011;53900;51.468;-2.586;2023-04-24T08:16:46;5.30;;;3.47;;
66966;SDS011;53900;51.468;-2.586;2023-04-24T08:19:11;6.32;;;3.90;;
66966;SDS011;53900;51.468;-2.586;2023-04-24T08:21:37;6.95;;;3.45;;
66966;SDS011;53900;51.468;-2.586;2023-04-24T08:24:02;10.52;;;4.60;;
66966;SDS011;53900;51.468;-2.586;2023-04-24T08:26:30;7.97;;;3.72;;
66966;SDS011;53900;51.468;-2.586;2023-04-24T08:28:55;7.25;;;3.85;;
66966;SDS011;53900;51.468;-2.586;2023-04-24T08:31:20;10.43;;;3.92;;
66966;SDS011;53900;51.468;-2.586;2023-04-24T08:33:45;8.57;;;4.10;;
66966;SDS011;53900;51.468;-2.586;2023-04-24T08:36:12;9.75;;;4.47;;
66966;SDS011;53900;51.468;-2.586;2023-04-24T08:38:37;10.05;;;5.03;;
66966;SDS011;53900;51.468;-2.586;2023-04-24T08:41:03;14.27;;;5.82;;
66966;SDS011;53900;51.468;-2.586;2023-04-24T08:43:29;12.13;;;5.97;;
66966;SDS011;53900;51.468;-2.586;2023-04-24T08:45:55;12.55;;;5.55;;
66966;SDS011;53900;51.468;-2.586;2023-04-24T08:48:21;9.57;;;5.15;;
66966;SDS011;53900;51.468;-2.586;2023-04-24T08:50:46;9.00;;;5.15;;
66966;SDS011;53900;51.468;-2.586;2023-04-24T08:53:13;6.57;;;4.10;;
66966;SDS011;53900;51.468;-2.586;2023-04-24T08:55:38;7.50;;;4.88;;
66966;SDS011;53900;51.468;-2.586;2023-04-24T08:58:03;6.30;;;4.53;;
66966;SDS011;53900;51.468;-2.586;2023-04-24T09:00:29;10.73;;;5.63;;
66966;SDS011;53900;51.468;-2.586;2023-04-24T09:02:54;8.35;;;5.20;;
66966;SDS011;53900;51.468;-2.586;2023-04-24T09:05:20;9.15;;;5.63;;
66966;SDS011;53900;51.468;-2.586;2023-04-24T09:07:48;9.85;;;5.55;;
66966;SDS011;53900;51.468;-2.586;2023-04-24T09:10:14;10.15;;;5.43;;
66966;SDS011;53900;51.468;-2.586;2023-04-24T09:12:39;6.05;;;4.45;;
66966;SDS011;53900;51.468;-2.586;2023-04-24T09:15:05;7.47;;;4.80;;
66966;SDS011;53900;51.468;-2.586;2023-04-24T09:17:32;10.02;;;5.45;;
66966;SDS011;53900;51.468;-2.586;2023-04-24T09:19:58;8.13;;;5.22;;
66966;SDS011;53900;51.468;-2.586;2023-04-24T09:22:23;8.95;;;5.53;;
66966;SDS011;53900;51.468;-2.586;2023-04-24T09:24:48;12.15;;;5.55;;
66966;SDS011;53900;51.468;-2.586;2023-04-24T09:27:24;8.60;;;5.15;;
66966;SDS011;53900;51.468;-2.586;2023-04-24T09:29:55;10.02;;;5.00;;
66966;SDS011;53900;51.468;-2.586;2023-04-24T09:32:21;9.55;;;5.65;;
66966;SDS011;53900;51.468;-2.586;2023-04-24T09:34:47;16.92;;;6.47;;
66966;SDS011;53900;51.468;-2.586;2023-04-24T09:37:25;34.97;;;10.45;;
66966;SDS011;53900;51.468;-2.586;2023-04-24T09:40:06;17.42;;;6.50;;
66966;SDS011;53900;51.468;-2.586;2023-04-24T09:42:32;28.00;;;6.43;;
66966;SDS011;53900;51.468;-2.586;2023-04-24T09:44:57;23.08;;;6.03;;
66966;SDS011;53900;51.468;-2.586;2023-04-24T09:47:22;11.32;;;5.72;;
66966;SDS011;53900;51.468;-2.586;2023-04-24T09:49:48;18.35;;;6.47;;
66966;SDS011;53900;51.468;-2.586;2023-04-24T09:52:14;15.98;;;6.20;;
66966;SDS011;53900;51.468;-2.586;2023-04-24T09:54:40;14.52;;;6.43;;
66966;SDS011;53900;51.468;-2.586;2023-04-24T09:57:07;13.98;;;6.22;;
66966;SDS011;53900;51.468;-2.586;2023-04-24T09:59:32;10.23;;;5.90;;
66966;SDS011;53900;51.468;-2.586;2023-04-24T10:01:57;7.70;;;5.68;;
66966;SDS011;53900;51.468;-2.586;2023-04-24T10:04:24;11.05;;;5.70;;
66966;SDS011;53900;51.468;-2.586;2023-04-24T10:06:50;10.20;;;6.07;;
66966;SDS011;53900;51.468;-2.586;2023-04-24T10:09:17;13.07;;;6.38;;
66966;SDS011;53900;51.468;-2.586;2023-04-24T10:11:43;8.45;;;5.68;;
66966;SDS011;53900;51.468;-2.586;2023-04-24T10:14:11;11.25;;;6.57;;
66966;SDS011;53900;51.468;-2.586;2023-04-24T10:16:37;10.32;;;6.22;;
66966;SDS011;53900;51.468;-2.586;2023-04-24T10:19:03;9.88;;;6.50;;
66966;SDS011;53900;51.468;-2.586;2023-04-24T10:21:28;9.10;;;6.45;;
66966;SDS011;53900;51.468;-2.586;2023-04-24T10:23:53;14.48;;;7.55;;
66966;SDS011;53900;51.468;-2.586;2023-04-24T10:26:19;11.65;;;6.95;;
66966;SDS011;53900;51.468;-2.586;2023-04-24T10:28:45;10.50;;;7.35;;
66966;SDS011;53900;51.468;-2.586;2023-04-24T10:31:10;14.13;;;8.10;;
66966;SDS011;53900;51.468;-2.586;2023-04-24T10:33:36;11.07;;;6.97;;
66966;SDS011;53900;51.468;-2.586;2023-04-24T10:36:02;11.48;;;6.72;;
66966;SDS011;53900;51.468;-2.586;2023-04-24T10:38:28;12.35;;;6.80;;
66966;SDS011;53900;51.468;-2.586;2023-04-24T10:41:07;13.75;;;7.93;;
66966;SDS011;53900;51.468;-2.586;2023-04-24T10:43:33;13.00;;;7.63;;
66966;SDS011;53900;51.468;-2.586;2023-04-24T10:46:02;15.60;;;7.53;;
66966;SDS011;53900;51.468;-2.586;2023-04-24T10:48:28;15.95;;;8.15;;
66966;SDS011;53900;51.468;-2.586;2023-04-24T10:50:53;12.10;;;7.65;;
66966;SDS011;53900;51.468;-2.586;2023-04-24T10:53:22;12.05;;;7.18;;
66966;SDS011;53900;51.468;-2.586;2023-04-24T10:55:58;13.20;;;7.40;;
66966;SDS011;53900;51.468;-2.586;2023-04-24T10:58:24;14.48;;;7.15;;
66966;SDS011;53900;51.468;-2.586;2023-04-24T11:00:56;12.32;;;6.57;;
66966;SDS011;53900;51.468;-2.586;2023-04-24T11:03:28;12.38;;;6.38;;
66966;SDS011;53900;51.468;-2.586;2023-04-24T11:06:06;9.73;;;5.45;;
66966;SDS011;53900;51.468;-2.586;2023-04-24T11:11:02;6.63;;;4.70;;
66966;SDS011;53900;51.468;-2.586;2023-04-24T11:14:00;7.68;;;4.65;;
66966;SDS011;53900;51.468;-2.586;2023-04-24T11:18:39;6.63;;;4.43;;
66966;SDS011;53900;51.468;-2.586;2023-04-24T11:21:11;7.20;;;4.30;;
66966;SDS011;53900;51.468;-2.586;2023-04-24T11:23:37;8.98;;;4.55;;
66966;SDS011;53900;51.468;-2.586;2023-04-24T11:26:12;5.85;;;4.32;;
66966;SDS011;53900;51.468;-2.586;2023-04-24T11:28:43;5.00;;;3.90;;
66966;SDS011;53900;51.468;-2.586;2023-04-24T11:33:52;10.52;;;4.57;;
66966;SDS011;53900;51.468;-2.586;2023-04-24T11:36:19;7.13;;;4.55;;
66966;SDS011;53900;51.468;-2.586;2023-04-24T11:38:44;10.15;;;4.70;;
66966;SDS011;53900;51.468;-2.586;2023-04-24T11:41:09;4.70;;;3.90;;
66966;SDS011;53900;51.468;-2.586;2023-04-24T11:43:34;5.57;;;3.72;;
66966;SDS011;53900;51.468;-2.586;2023-04-24T11:46:00;9.65;;;4.18;;
66966;SDS011;53900;51.468;-2.586;2023-04-24T11:48:25;6.88;;;4.05;;
66966;SDS011;53900;51.468;-2.586;2023-04-24T11:50:50;6.45;;;4.25;;
66966;SDS011;53900;51.468;-2.586;2023-04-24T11:53:16;6.70;;;4.32;;
66966;SDS011;53900;51.468;-2.586;2023-04-24T11:55:43;5.93;;;3.42;;
66966;SDS011;53900;51.468;-2.586;2023-04-24T11:58:08;5.57;;;3.40;;
66966;SDS011;53900;51.468;-2.586;2023-04-24T12:00:33;4.57;;;3.40;;
66966;SDS011;53900;51.468;-2.586;2023-04-24T12:03:17;6.10;;;2.97;;
66966;SDS011;53900;51.468;-2.586;2023-04-24T12:05:42;3.65;;;2.90;;
66966;SDS011;53900;51.468;-2.586;2023-04-24T12:08:09;5.13;;;3.38;;
66966;SDS011;53900;51.468;-2.586;2023-04-24T12:10:34;4.30;;;2.63;;
66966;SDS011;53900;51.468;-2.586;2023-04-24T12:13:00;4.13;;;2.80;;
66966;SDS011;53900;51.468;-2.586;2023-04-24T12:15:25;3.67;;;2.50;;
66966;SDS011;53900;51.468;-2.586;2023-04-24T12:17:51;4.65;;;2.80;;
66966;SDS011;53900;51.468;-2.586;2023-04-24T12:20:17;3.08;;;2.60;;
66966;SDS011;53900;51.468;-2.586;2023-04-24T12:22:43;3.75;;;2.95;;
66966;SDS011;53900;51.468;-2.586;2023-04-24T12:25:10;5.00;;;2.83;;
66966;SDS011;53900;51.468;-2.586;2023-04-24T12:27:35;3.67;;;2.67;;
66966;SDS011;53900;51.468;-2.586;2023-04-24T12:30:01;3.22;;;2.42;;
66966;SDS011;53900;51.468;-2.586;2023-04-24T12:32:27;3.78;;;2.65;;
66966;SDS011;53900;51.468;-2.586;2023-04-24T12:34:53;2.58;;;2.10;;
66966;SDS011;53900;51.468;-2.586;2023-04-24T12:37:18;4.72;;;2.60;;
66966;SDS011;53900;51.468;-2.586;2023-04-24T12:42:30;3.47;;;2.65;;
66966;SDS011;53900;51.468;-2.586;2023-04-24T12:44:59;6.93;;;2.72;;
66966;SDS011;53900;51.468;-2.586;2023-04-24T12:47:25;5.70;;;3.03;;
66966;SDS011;53900;51.468;-2.586;2023-04-24T12:49:51;9.95;;;3.15;;
66966;SDS011;53900;51.468;-2.586;2023-04-24T12:52:17;3.95;;;3.08;;
66966;SDS011;53900;51.468;-2.586;2023-04-24T12:54:42;6.97;;;3.10;;
66966;SDS011;53900;51.468;-2.586;2023-04-24T12:57:08;5.22;;;3.33;;
66966;SDS011;53900;51.468;-2.586;2023-04-24T12:59:33;9.07;;;3.92;;
66966;SDS011;53900;51.468;-2.586;2023-04-24T13:01:58;9.55;;;3.95;;
66966;SDS011;53900;51.468;-2.586;2023-04-24T13:04:23;5.20;;;3.10;;
66966;SDS011;53900;51.468;-2.586;2023-04-24T13:06:49;6.18;;;3.50;;
66966;SDS011;53900;51.468;-2.586;2023-04-24T13:09:15;4.35;;;3.30;;
66966;SDS011;53900;51.468;-2.586;2023-04-24T13:11:40;4.88;;;3.42;;
66966;SDS011;53900;51.468;-2.586;2023-04-24T13:14:05;5.85;;;3.53;;
66966;SDS011;53900;51.468;-2.586;2023-04-24T13:16:30;4.25;;;3.08;;
66966;SDS011;53900;51.468;-2.586;2023-04-24T13:18:55;5.68;;;3.50;;
66966;SDS011;53900;51.468;-2.586;2023-04-24T13:21:21;5.90;;;3.40;;
66966;SDS011;53900;51.468;-2.586;2023-04-24T13:23:46;4.13;;;3.20;;
66966;SDS011;53900;51.468;-2.586;2023-04-24T13:26:11;6.28;;;3.70;;
66966;SDS011;53900;51.468;-2.586;2023-04-24T13:28:36;4.82;;;3.30;;
66966;SDS011;53900;51.468;-2.586;2023-04-24T13:31:03;5.10;;;3.42;;
66966;SDS011;53900;51.468;-2.586;2023-04-24T13:33:28;4.75;;;3.47;;
66966;SDS011;53900;51.468;-2.586;2023-04-24T13:35:53;4.80;;;3.03;;
66966;SDS011;53900;51.468;-2.586;2023-04-24T13:38:18;5.05;;;3.50;;
66966;SDS011;53900;51.468;-2.586;2023-04-24T13:40:46;5.40;;;3.60;;
66966;SDS011;53900;51.468;-2.586;2023-04-24T13:43:11;4.30;;;3.30;;
66966;SDS011;53900;51.468;-2.586;2023-04-24T13:45:36;4.85;;;3.38;;
66966;SDS011;53900;51.468;-2.586;2023-04-24T13:48:02;5.22;;;3.28;;
66966;SDS011;53900;51.468;-2.586;2023-04-24T13:50:28;3.75;;;3.20;;
66966;SDS011;53900;51.468;-2.586;2023-04-24T13:52:53;6.80;;;4.15;;
66966;SDS011;53900;51.468;-2.586;2023-04-24T13:55:19;5.97;;;3.22;;
66966;SDS011;53900;51.468;-2.586;2023-04-24T13:57:44;6.15;;;3.22;;
66966;SDS011;53900;51.468;-2.586;2023-04-24T14:00:09;7.20;;;3.83;;
66966;SDS011;53900;51.468;-2.586;2023-04-24T14:02:36;6.10;;;3.33;;
66966;SDS011;53900;51.468;-2.586;2023-04-24T14:05:01;5.22;;;3.50;;
66966;SDS011;53900;51.468;-2.586;2023-04-24T14:07:28;3.80;;;3.00;;
66966;SDS011;53900;51.468;-2.586;2023-04-24T14:09:53;8.30;;;3.20;;
66966;SDS011;53900;51.468;-2.586;2023-04-24T14:12:18;3.70;;;2.83;;
66966;SDS011;53900;51.468;-2.586;2023-04-24T14:14:44;5.75;;;3.33;;
66966;SDS011;53900;51.468;-2.586;2023-04-24T14:17:10;5.45;;;3.45;;
66966;SDS011;53900;51.468;-2.586;2023-04-24T14:19:35;4.30;;;2.70;;
66966;SDS011;53900;51.468;-2.586;2023-04-24T14:22:01;4.78;;;2.80;;
66966;SDS011;53900;51.468;-2.586;2023-04-24T14:24:26;3.25;;;2.50;;
66966;SDS011;53900;51.468;-2.586;2023-04-24T14:26:51;3.75;;;2.40;;
66966;SDS011;53900;51.468;-2.586;2023-04-24T14:29:16;2.80;;;2.15;;
66966;SDS011;53900;51.468;-2.586;2023-04-24T14:31:42;3.05;;;2.30;;
66966;SDS011;53900;51.468;-2.586;2023-04-24T14:34:07;2.78;;;2.17;;
66966;SDS011;53900;51.468;-2.586;2023-04-24T14:36:32;4.53;;;2.13;;
66966;SDS011;53900;51.468;-2.586;2023-04-24T14:38:58;6.35;;;2.58;;
66966;SDS011;53900;51.468;-2.586;2023-04-24T14:41:23;5.15;;;2.50;;
66966;SDS011;53900;51.468;-2.586;2023-04-24T14:43:48;5.47;;;2.22;;
66966;SDS011;53900;51.468;-2.586;2023-04-24T14:46:13;3.95;;;2.40;;
66966;SDS011;53900;51.468;-2.586;2023-04-24T14:48:38;3.70;;;2.63;;
66966;SDS011;53900;51.468;-2.586;2023-04-24T14:51:04;5.40;;;2.60;;
66966;SDS011;53900;51.468;-2.586;2023-04-24T14:53:29;5.70;;;2.47;;
66966;SDS011;53900;51.468;-2.586;2023-04-24T14:55:54;6.32;;;2.70;;
66966;SDS011;53900;51.468;-2.586;2023-04-24T14:58:19;5.22;;;2.47;;
66966;SDS011;53900;51.468;-2.586;2023-04-24T15:00:45;4.63;;;2.30;;
66966;SDS011;53900;51.468;-2.586;2023-04-24T15:03:10;3.63;;;2.25;;
66966;SDS011;53900;51.468;-2.586;2023-04-24T15:05:35;4.38;;;2.05;;
66966;SDS011;53900;51.468;-2.586;2023-04-24T15:08:01;4.40;;;2.20;;
66966;SDS011;53900;51.468;-2.586;2023-04-24T15:10:26;2.28;;;2.08;;
66966;SDS011;53900;51.468;-2.586;2023-04-24T15:12:51;5.03;;;1.70;;
66966;SDS011;53900;51.468;-2.586;2023-04-24T15:15:16;4.05;;;1.95;;
66966;SDS011;53900;51.468;-2.586;2023-04-24T15:17:42;3.88;;;1.48;;
66966;SDS011;53900;51.468;-2.586;2023-04-24T15:20:08;3.35;;;1.70;;
66966;SDS011;53900;51.468;-2.586;2023-04-24T15:22:33;3.10;;;1.63;;
66966;SDS011;53900;51.468;-2.586;2023-04-24T15:24:58;4.80;;;1.55;;
66966;SDS011;53900;51.468;-2.586;2023-04-24T15:27:23;2.83;;;1.60;;
66966;SDS011;53900;51.468;-2.586;2023-04-24T15:29:49;2.75;;;1.70;;
66966;SDS011;53900;51.468;-2.586;2023-04-24T15:32:14;4.00;;;1.90;;
66966;SDS011;53900;51.468;-2.586;2023-04-24T15:34:39;4.50;;;1.83;;
66966;SDS011;53900;51.468;-2.586;2023-04-24T15:37:05;2.58;;;1.65;;
66966;SDS011;53900;51.468;-2.586;2023-04-24T15:39:30;4.85;;;1.98;;
66966;SDS011;53900;51.468;-2.586;2023-04-24T15:41:55;2.75;;;1.77;;
66966;SDS011;53900;51.468;-2.586;2023-04-24T15:44:21;1.98;;;1.52;;
66966;SDS011;53900;51.468;-2.586;2023-04-24T15:46:47;3.85;;;1.80;;
66966;SDS011;53900;51.468;-2.586;2023-04-24T15:49:12;4.72;;;1.88;;
66966;SDS011;53900;51.468;-2.586;2023-04-24T15:51:37;1.40;;;1.30;;
66966;SDS011;53900;51.468;-2.586;2023-04-24T15:54:02;2.95;;;1.58;;
66966;SDS011;53900;51.468;-2.586;2023-04-24T15:56:28;4.28;;;1.90;;
66966;SDS011;53900;51.468;-2.586;2023-04-24T15:58:53;2.92;;;1.73;;
66966;SDS011;53900;51.468;-2.586;2023-04-24T16:01:18;5.10;;;1.92;;
66966;SDS011;53900;51.468;-2.586;2023-04-24T16:03:43;4.25;;;1.92;;
66966;SDS011;53900;51.468;-2.586;2023-04-24T16:06:08;3.67;;;1.92;;
66966;SDS011;53900;51.468;-2.586;2023-04-24T16:08:34;4.15;;;1.88;;
66966;SDS011;53900;51.468;-2.586;2023-04-24T16:11:00;4.30;;;1.70;;
66966;SDS011;53900;51.468;-2.586;2023-04-24T16:13:25;6.00;;;2.03;;
66966;SDS011;53900;51.468;-2.586;2023-04-24T16:15:50;6.05;;;1.73;;
66966;SDS011;53900;51.468;-2.586;2023-04-24T16:18:16;5.85;;;1.77;;
66966;SDS011;53900;51.468;-2.586;2023-04-24T16:20:41;2.97;;;1.90;;
66966;SDS011;53900;51.468;-2.586;2023-04-24T16:23:06;3.47;;;1.80;;
66966;SDS011;53900;51.468;-2.586;2023-04-24T16:25:32;4.50;;;1.90;;
66966;SDS011;53900;51.468;-2.586;2023-04-24T16:27:57;3.13;;;1.67;;
66966;SDS011;53900;51.468;-2.586;2023-04-24T16:30:22;4.07;;;1.80;;
66966;SDS011;53900;51.468;-2.586;2023-04-24T16:32:47;1.65;;;1.50;;
66966;SDS011;53900;51.468;-2.586;2023-04-24T16:35:12;5.45;;;1.98;;
66966;SDS011;53900;51.468;-2.586;2023-04-24T16:37:38;1.85;;;1.60;;
66966;SDS011;53900;51.468;-2.586;2023-04-24T16:40:03;3.33;;;1.70;;
66966;SDS011;53900;51.468;-2.586;2023-04-24T16:42:34;2.50;;;1.60;;
66966;SDS011;53900;51.468;-2.586;2023-04-24T16:44:59;2.13;;;1.55;;
66966;SDS011;53900;51.468;-2.586;2023-04-24T16:47:24;2.90;;;1.88;;
66966;SDS011;53900;51.468;-2.586;2023-04-24T16:49:50;4.25;;;1.88;;
66966;SDS011;53900;51.468;-2.586;2023-04-24T16:52:15;3.15;;;1.90;;
66966;SDS011;53900;51.468;-2.586;2023-04-24T16:54:40;3.90;;;2.08;;
66966;SDS011;53900;51.468;-2.586;2023-04-24T16:57:06;8.15;;;1.77;;
66966;SDS011;53900;51.468;-2.586;2023-04-24T16:59:31;4.72;;;2.10;;
66966;SDS011;53900;51.468;-2.586;2023-04-24T17:01:58;4.93;;;2.40;;
66966;SDS011;53900;51.468;-2.586;2023-04-24T17:04:23;3.67;;;1.90;;
66966;SDS011;53900;51.468;-2.586;2023-04-24T17:06:48;3.28;;;1.90;;
66966;SDS011;53900;51.468;-2.586;2023-04-24T17:09:13;3.17;;;1.98;;
66966;SDS011;53900;51.468;-2.586;2023-04-24T17:11:39;2.67;;;1.77;;
66966;SDS011;53900;51.468;-2.586;2023-04-24T17:14:05;3.47;;;2.10;;
66966;SDS011;53900;51.468;-2.586;2023-04-24T17:16:30;3.30;;;1.73;;
66966;SDS011;53900;51.468;-2.586;2023-04-24T17:18:55;4.25;;;1.95;;
66966;SDS011;53900;51.468;-2.586;2023-04-24T17:21:20;7.25;;;2.40;;
66966;SDS011;53900;51.468;-2.586;2023-04-24T17:23:46;2.38;;;1.55;;
66966;SDS011;53900;51.468;-2.586;2023-04-24T17:26:11;5.13;;;2.05;;
66966;SDS011;53900;51.468;-2.586;2023-04-24T17:28:36;3.60;;;1.83;;
66966;SDS011;53900;51.468;-2.586;2023-04-24T17:31:02;3.67;;;2.10;;
66966;SDS011;53900;51.468;-2.586;2023-04-24T17:33:27;7.25;;;2.42;;
66966;SDS011;53900;51.468;-2.586;2023-04-24T17:35:53;3.17;;;1.73;;
66966;SDS011;53900;51.468;-2.586;2023-04-24T17:38:18;7.35;;;2.08;;
66966;SDS011;53900;51.468;-2.586;2023-04-24T17:40:43;6.75;;;1.92;;
66966;SDS011;53900;51.468;-2.586;2023-04-24T17:43:10;4.15;;;1.80;;
66966;SDS011;53900;51.468;-2.586;2023-04-24T17:45:36;2.90;;;2.60;;
66966;SDS011;53900;51.468;-2.586;2023-04-24T17:48:01;4.55;;;2.45;;
66966;SDS011;53900;51.468;-2.586;2023-04-24T17:50:27;3.78;;;2.10;;
66966;SDS011;53900;51.468;-2.586;2023-04-24T17:52:52;8.45;;;3.15;;
66966;SDS011;53900;51.468;-2.586;2023-04-24T17:55:17;8.27;;;3.67;;
66966;SDS011;53900;51.468;-2.586;2023-04-24T17:57:42;4.60;;;3.28;;
66966;SDS011;53900;51.468;-2.586;2023-04-24T18:00:08;5.53;;;2.80;;
66966;SDS011;53900;51.468;-2.586;2023-04-24T18:02:33;5.28;;;2.30;;
66966;SDS011;53900;51.468;-2.586;2023-04-24T18:05:00;2.53;;;1.50;;
66966;SDS011;53900;51.468;-2.586;2023-04-24T18:07:25;2.05;;;1.60;;
66966;SDS011;53900;51.468;-2.586;2023-04-24T18:09:50;2.20;;;1.50;;
66966;SDS011;53900;51.468;-2.586;2023-04-24T18:12:15;5.53;;;1.60;;
66966;SDS011;53900;51.468;-2.586;2023-04-24T18:14:40;7.88;;;1.70;;
66966;SDS011;53900;51.468;-2.586;2023-04-24T18:17:06;2.88;;;1.60;;
66966;SDS011;53900;51.468;-2.586;2023-04-24T18:19:31;5.10;;;1.40;;
66966;SDS011;53900;51.468;-2.586;2023-04-24T18:21:56;3.92;;;1.65;;
66966;SDS011;53900;51.468;-2.586;2023-04-24T18:24:23;2.10;;;1.40;;
66966;SDS011;53900;51.468;-2.586;2023-04-24T18:26:48;4.53;;;1.98;;
66966;SDS011;53900;51.468;-2.586;2023-04-24T18:29:13;4.20;;;1.73;;
66966;SDS011;53900;51.468;-2.586;2023-04-24T18:31:39;3.63;;;1.65;;
66966;SDS011;53900;51.468;-2.586;2023-04-24T18:34:04;2.85;;;1.75;;
66966;SDS011;53900;51.468;-2.586;2023-04-24T18:36:29;5.28;;;2.00;;
66966;SDS011;53900;51.468;-2.586;2023-04-24T18:38:54;2.83;;;1.92;;
66966;SDS011;53900;51.468;-2.586;2023-04-24T18:41:19;3.33;;;1.70;;
66966;SDS011;53900;51.468;-2.586;2023-04-24T18:43:45;3.40;;;1.83;;
66966;SDS011;53900;51.468;-2.586;2023-04-24T18:46:10;4.22;;;2.00;;
66966;SDS011;53900;51.468;-2.586;2023-04-24T18:48:35;4.50;;;2.30;;
66966;SDS011;53900;51.468;-2.586;2023-04-24T18:51:01;4.15;;;2.17;;
66966;SDS011;53900;51.468;-2.586;2023-04-24T18:53:26;7.78;;;3.00;;
66966;SDS011;53900;51.468;-2.586;2023-04-24T18:55:51;6.82;;;2.45;;
66966;SDS011;53900;51.468;-2.586;2023-04-24T18:58:17;4.90;;;2.38;;
66966;SDS011;53900;51.468;-2.586;2023-04-24T19:00:42;4.72;;;2.30;;
66966;SDS011;53900;51.468;-2.586;2023-04-24T19:03:07;4.55;;;2.40;;
66966;SDS011;53900;51.468;-2.586;2023-04-24T19:05:33;4.53;;;2.45;;
66966;SDS011;53900;51.468;-2.586;2023-04-24T19:07:58;4.75;;;2.72;;
66966;SDS011;53900;51.468;-2.586;2023-04-24T19:10:23;11.68;;;4.10;;
66966;SDS011;53900;51.468;-2.586;2023-04-24T19:12:49;8.45;;;5.38;;
66966;SDS011;53900;51.468;-2.586;2023-04-24T19:15:20;11.52;;;4.90;;
66966;SDS011;53900;51.468;-2.586;2023-04-24T19:17:45;10.77;;;4.10;;
66966;SDS011;53900;51.468;-2.586;2023-04-24T19:20:12;11.73;;;4.95;;
66966;SDS011;53900;51.468;-2.586;2023-04-24T19:22:37;5.32;;;3.40;;
66966;SDS011;53900;51.468;-2.586;2023-04-24T19:25:03;7.22;;;3.67;;
66966;SDS011;53900;51.468;-2.586;2023-04-24T19:27:28;7.97;;;4.18;;
66966;SDS011;53900;51.468;-2.586;2023-04-24T19:29:53;6.72;;;3.80;;
66966;SDS011;53900;51.468;-2.586;2023-04-24T19:32:19;11.07;;;3.75;;
66966;SDS011;53900;51.468;-2.586;2023-04-24T19:34:44;6.93;;;3.20;;
66966;SDS011;53900;51.468;-2.586;2023-04-24T19:37:09;6.57;;;2.90;;
66966;SDS011;53900;51.468;-2.586;2023-04-24T19:39:34;6.97;;;3.15;;
66966;SDS011;53900;51.468;-2.586;2023-04-24T19:42:00;4.00;;;2.63;;
66966;SDS011;53900;51.468;-2.586;2023-04-24T19:44:26;7.18;;;2.90;;
66966;SDS011;53900;51.468;-2.586;2023-04-24T19:46:52;4.75;;;2.88;;
66966;SDS011;53900;51.468;-2.586;2023-04-24T19:49:17;7.72;;;3.25;;
66966;SDS011;53900;51.468;-2.586;2023-04-24T19:51:42;9.38;;;3.13;;
66966;SDS011;53900;51.468;-2.586;2023-04-24T19:54:07;6.88;;;3.03;;
66966;SDS011;53900;51.468;-2.586;2023-04-24T19:56:32;6.53;;;3.22;;
66966;SDS011;53900;51.468;-2.586;2023-04-24T19:58:58;8.77;;;3.40;;
66966;SDS011;53900;51.468;-2.586;2023-04-24T20:01:23;8.23;;;3.17;;
66966;SDS011;53900;51.468;-2.586;2023-04-24T20:03:48;6.70;;;3.90;;
66966;SDS011;53900;51.468;-2.586;2023-04-24T20:06:13;6.07;;;3.08;;
66966;SDS011;53900;51.468;-2.586;2023-04-24T20:08:39;7.85;;;3.20;;
66966;SDS011;53900;51.468;-2.586;2023-04-24T20:11:04;6.32;;;3.05;;
66966;SDS011;53900;51.468;-2.586;2023-04-24T20:13:30;8.88;;;3.28;;
66966;SDS011;53900;51.468;-2.586;2023-04-24T20:15:56;10.27;;;4.07;;
66966;SDS011;53900;51.468;-2.586;2023-04-24T20:18:21;8.05;;;3.25;;
66966;SDS011;53900;51.468;-2.586;2023-04-24T20:20:46;6.75;;;3.08;;
66966;SDS011;53900;51.468;-2.586;2023-04-24T20:23:12;10.57;;;3.42;;
66966;SDS011;53900;51.468;-2.586;2023-04-24T20:25:38;9.98;;;4.07;;
66966;SDS011;53900;51.468;-2.586;2023-04-24T20:28:03;7.43;;;3.00;;
66966;SDS011;53900;51.468;-2.586;2023-04-24T20:30:28;7.55;;;3.42;;
66966;SDS011;53900;51.468;-2.586;2023-04-24T20:32:55;7.32;;;3.70;;
66966;SDS011;53900;51.468;-2.586;2023-04-24T20:35:20;7.78;;;3.60;;
66966;SDS011;53900;51.468;-2.586;2023-04-24T20:37:45;6.63;;;3.33;;
66966;SDS011;53900;51.468;-2.586;2023-04-24T20:40:11;9.45;;;3.30;;
66966;SDS011;53900;51.468;-2.586;2023-04-24T20:42:37;8.18;;;3.47;;
66966;SDS011;53900;51.468;-2.586;2023-04-24T20:45:03;6.93;;;3.42;;
66966;SDS011;53900;51.468;-2.586;2023-04-24T20:47:28;9.88;;;3.90;;
66966;SDS011;53900;51.468;-2.586;2023-04-24T20:49:54;7.55;;;3.50;;
66966;SDS011;53900;51.468;-2.586;2023-04-24T20:52:20;9.07;;;3.55;;
66966;SDS011;53900;51.468;-2.586;2023-04-24T20:54:45;9.38;;;3.47;;
66966;SDS011;53900;51.468;-2.586;2023-04-24T20:57:10;10.43;;;4.28;;
66966;SDS011;53900;51.468;-2.586;2023-04-24T20:59:36;8.50;;;3.80;;
66966;SDS011;53900;51.468;-2.586;2023-04-24T21:02:02;9.20;;;3.90;;
66966;SDS011;53900;51.468;-2.586;2023-04-24T21:04:27;8.90;;;4.13;;
66966;SDS011;53900;51.468;-2.586;2023-04-24T21:06:52;11.63;;;3.90;;
66966;SDS011;53900;51.468;-2.586;2023-04-24T21:09:17;10.07;;;4.43;;
66966;SDS011;53900;51.468;-2.586;2023-04-24T21:11:42;10.32;;;4.85;;
66966;SDS011;53900;51.468;-2.586;2023-04-24T21:14:07;9.82;;;4.63;;
66966;SDS011;53900;51.468;-2.586;2023-04-24T21:16:34;9.85;;;4.35;;
66966;SDS011;53900;51.468;-2.586;2023-04-24T21:18:59;9.52;;;3.92;;
66966;SDS011;53900;51.468;-2.586;2023-04-24T21:21:25;10.90;;;4.22;;
66966;SDS011;53900;51.468;-2.586;2023-04-24T21:23:50;10.68;;;4.20;;
66966;SDS011;53900;51.468;-2.586;2023-04-24T21:26:15;9.23;;;3.88;;
66966;SDS011;53900;51.468;-2.586;2023-04-24T21:28:41;9.07;;;4.32;;
66966;SDS011;53900;51.468;-2.586;2023-04-24T21:31:06;10.43;;;4.00;;
66966;SDS011;53900;51.468;-2.586;2023-04-24T21:33:32;8.27;;;3.63;;
66966;SDS011;53900;51.468;-2.586;2023-04-24T21:35:57;10.25;;;4.25;;
66966;SDS011;53900;51.468;-2.586;2023-04-24T21:38:22;10.43;;;4.57;;
66966;SDS011;53900;51.468;-2.586;2023-04-24T21:40:49;12.25;;;3.92;;
66966;SDS011;53900;51.468;-2.586;2023-04-24T21:43:15;10.18;;;4.25;;
66966;SDS011;53900;51.468;-2.586;2023-04-24T21:45:40;9.55;;;4.45;;
66966;SDS011;53900;51.468;-2.586;2023-04-24T21:48:05;12.60;;;4.97;;
66966;SDS011;53900;51.468;-2.586;2023-04-24T21:50:30;10.38;;;4.32;;
66966;SDS011;53900;51.468;-2.586;2023-04-24T21:52:55;9.70;;;4.47;;